Time;durP1;ratioP1;P1;durP2;ratioP2;P2;SDS_P1;SDS_P2;PMS_P1;PMS_P2;Temp;Humidity;BMP_temperature;BMP_pressure;BME280_temperature;BME280_humidity;BME280_pressure;Samples;Min_cycle;Max_cycle;Signal;HPM_P1;HPM_P2
2021/08/29 00:01:03;;;;;;;14.82;5.72;;;13.10;99.90;;;;;;4974496;28;20058;-80
2021/08/29 00:03:32;;;;;;;14.63;6.65;;;13.00;99.90;;;;;;5002612;28;20034;-80
2021/08/29 00:06:01;;;;;;;14.85;6.57;;;13.00;99.90;;;;;;4990164;28;20046;-79
2021/08/29 00:08:29;;;;;;;21.33;6.93;;;13.00;99.90;;;;;;4991490;28;20057;-81
2021/08/29 00:10:58;;;;;;;16.63;6.85;;;13.00;99.90;;;;;;4973444;28;20043;-80
2021/08/29 00:13:26;;;;;;;13.40;6.95;;;13.00;99.90;;;;;;4990427;28;20057;-80
2021/08/29 00:15:55;;;;;;;14.60;6.15;;;13.00;99.90;;;;;;5012019;28;20574;-80
2021/08/29 00:18:24;;;;;;;16.50;7.75;;;12.80;99.90;;;;;;4999578;28;20046;-81
2021/08/29 00:20:52;;;;;;;16.95;7.55;;;12.90;99.90;;;;;;5011013;28;20053;-80
2021/08/29 00:23:21;;;;;;;20.08;9.02;;;12.80;99.90;;;;;;5019666;28;20395;-80
2021/08/29 00:25:49;;;;;;;17.02;6.75;;;12.80;99.90;;;;;;4981372;28;20061;-80
2021/08/29 00:28:20;;;;;;;24.65;6.90;;;12.70;99.90;;;;;;4983042;28;20057;-80
2021/08/29 00:30:48;;;;;;;;;;;12.70;99.90;;;;;;4998487;28;20632;-80
2021/08/29 00:33:16;;;;;;;14.30;6.35;;;12.70;99.90;;;;;;4998071;28;19922;-79
2021/08/29 00:35:45;;;;;;;14.80;6.15;;;12.70;99.90;;;;;;4991618;28;20042;-81
2021/08/29 00:38:13;;;;;;;13.07;6.40;;;12.70;99.90;;;;;;4953495;28;20062;-80
2021/08/29 00:40:41;;;;;;;18.00;6.47;;;12.60;99.90;;;;;;4950820;28;20047;-80
2021/08/29 00:43:09;;;;;;;15.10;5.53;;;12.60;99.90;;;;;;4990291;28;20054;-80
2021/08/29 00:45:37;;;;;;;19.17;7.38;;;12.60;99.90;;;;;;4984674;28;20043;-82
2021/08/29 00:48:09;;;;;;;15.38;7.85;;;12.60;99.90;;;;;;4968796;28;20059;-80
2021/08/29 00:50:44;;;;;;;11.23;6.00;;;12.60;99.90;;;;;;4987654;28;20070;-80
2021/08/29 00:53:17;;;;;;;12.73;5.82;;;12.50;99.90;;;;;;4983659;28;20050;-80
2021/08/29 00:55:47;;;;;;;18.08;6.50;;;12.50;99.90;;;;;;4974323;28;20057;-80
2021/08/29 00:58:22;;;;;;;15.80;7.05;;;12.50;99.90;;;;;;4990628;28;20491;-80
2021/08/29 01:00:52;;;;;;;16.23;6.45;;;12.50;99.90;;;;;;4994280;28;20066;-79
2021/08/29 01:03:27;;;;;;;14.68;5.97;;;12.50;99.90;;;;;;4991365;28;20360;-80
2021/08/29 01:06:27;;;;;;;15.70;6.07;;;12.50;99.90;;;;;;4968728;28;20069;-80
2021/08/29 01:09:26;;;;;;;16.60;6.20;;;12.50;99.90;;;;;;4980935;28;20051;-80
2021/08/29 01:11:56;;;;;;;20.75;6.68;;;12.50;99.90;;;;;;4972148;28;20054;-80
2021/08/29 01:14:44;;;;;;;17.92;7.43;;;12.50;99.90;;;;;;4989614;28;20042;-81
2021/08/29 01:17:14;;;;;;;17.67;7.03;;;12.50;99.90;;;;;;4999427;28;20061;-80
2021/08/29 01:20:20;;;;;;;16.73;7.50;;;12.50;99.90;;;;;;4990048;28;20047;-81
2021/08/29 01:22:51;;;;;;;12.55;6.30;;;12.50;99.90;;;;;;4987539;28;20061;-81
2021/08/29 01:25:27;;;;;;;16.92;7.22;;;12.40;99.90;;;;;;4969484;28;20057;-81
2021/08/29 01:28:16;;;;;;;16.33;6.40;;;12.40;99.90;;;;;;4991255;28;20054;-82
2021/08/29 01:30:47;;;;;;;15.98;5.97;;;12.40;99.90;;;;;;4990230;28;20050;-81
2021/08/29 01:33:31;;;;;;;10.68;4.93;;;12.40;99.90;;;;;;4992032;28;20041;-81
2021/08/29 01:36:13;;;;;;;19.10;5.80;;;12.40;99.90;;;;;;4981395;28;20046;-80
2021/08/29 01:38:46;;;;;;;19.00;5.90;;;12.40;99.90;;;;;;4970935;28;20061;-81
2021/08/29 01:41:18;;;;;;;15.25;6.68;;;12.40;99.90;;;;;;4970865;28;20051;-80
2021/08/29 01:43:49;;;;;;;31.17;6.93;;;12.30;99.90;;;;;;4987800;28;20051;-81
2021/08/29 01:46:18;;;;;;;14.63;5.07;;;12.40;99.90;;;;;;4987791;28;20037;-80
2021/08/29 01:49:02;;;;;;;9.88;5.15;;;12.30;99.90;;;;;;4988511;28;20062;-81
2021/08/29 01:51:31;;;;;;;10.18;4.78;;;12.20;99.90;;;;;;4994050;28;20047;-81
2021/08/29 01:54:11;;;;;;;10.10;5.15;;;12.30;99.90;;;;;;4961330;28;20043;-80
2021/08/29 01:57:11;;;;;;;14.48;5.63;;;12.20;99.90;;;;;;4983189;28;20053;-80
2021/08/29 01:59:43;;;;;;;13.35;5.25;;;12.20;99.90;;;;;;4960048;28;20050;-81
2021/08/29 02:02:16;;;;;;;14.95;5.22;;;12.20;99.90;;;;;;4998833;28;20060;-82
2021/08/29 02:04:46;;;;;;;14.25;5.68;;;12.20;99.90;;;;;;5006407;28;20042;-80
2021/08/29 02:07:55;;;;;;;17.13;7.13;;;12.20;99.90;;;;;;4997205;28;20062;-81
2021/08/29 02:10:34;;;;;;;17.45;6.05;;;12.20;99.90;;;;;;4989899;28;20057;-81
2021/08/29 02:13:25;;;;;;;12.18;5.10;;;12.20;99.90;;;;;;4990622;28;20042;-82
2021/08/29 02:16:02;;;;;;;13.63;5.60;;;12.20;99.90;;;;;;4985757;28;20050;-80
2021/08/29 02:18:33;;;;;;;14.57;5.15;;;12.20;99.90;;;;;;4985745;28;20046;-81
2021/08/29 02:21:04;;;;;;;14.52;6.00;;;12.20;99.90;;;;;;4978303;28;20038;-81
2021/08/29 02:23:33;;;;;;;14.98;4.90;;;12.20;99.90;;;;;;4985847;28;20039;-81
2021/08/29 02:26:02;;;;;;;14.13;6.13;;;12.20;99.90;;;;;;4987895;28;20074;-81
2021/08/29 02:28:34;;;;;;;15.15;5.82;;;12.10;99.90;;;;;;4987247;28;20054;-82
2021/08/29 02:31:03;;;;;;;15.60;5.20;;;12.20;99.90;;;;;;4996579;28;20053;-82
2021/08/29 02:33:32;;;;;;;12.88;5.85;;;12.10;99.90;;;;;;4986712;28;20053;-81
2021/08/29 02:36:02;;;;;;;14.95;5.55;;;12.10;99.90;;;;;;4969994;28;20065;-81
2021/08/29 02:38:39;;;;;;;19.60;6.65;;;12.80;99.90;;;;;;4985263;28;20046;-80
2021/08/29 02:41:09;;;;;;;10.82;5.60;;;12.10;99.90;;;;;;4985402;28;20043;-81
2021/08/29 02:43:40;;;;;;;13.23;6.15;;;12.00;99.90;;;;;;4987734;28;20464;-81
2021/08/29 02:46:10;;;;;;;15.88;5.53;;;12.00;99.90;;;;;;4983158;28;20053;-79
2021/08/29 02:48:44;;;;;;;14.60;5.55;;;11.90;99.90;;;;;;4971210;28;20047;-80
2021/08/29 02:51:17;;;;;;;15.02;5.45;;;11.90;99.90;;;;;;4984187;28;20834;-81
2021/08/29 02:53:50;;;;;;;18.92;7.15;;;11.90;99.90;;;;;;4991160;28;20070;-82
2021/08/29 02:56:20;;;;;;;16.27;5.68;;;11.80;99.90;;;;;;4990494;28;20057;-80
2021/08/29 02:59:03;;;;;;;15.07;4.82;;;11.90;99.90;;;;;;5000944;28;20056;-81
2021/08/29 03:01:38;;;;;;;11.25;5.93;;;11.80;99.90;;;;;;4993575;28;20049;-81
2021/08/29 03:04:15;;;;;;;15.98;6.97;;;11.80;99.90;;;;;;5003666;28;20053;-81
2021/08/29 03:06:44;;;;;;;10.65;6.25;;;11.80;99.90;;;;;;4987474;28;20031;-81
2021/08/29 03:09:13;;;;;;;14.52;5.78;;;11.80;99.90;;;;;;4986143;28;20051;-79
2021/08/29 03:11:46;;;;;;;15.70;6.00;;;11.80;99.90;;;;;;4986711;28;20053;-80
2021/08/29 03:14:36;;;;;;;14.93;6.75;;;11.80;99.90;;;;;;4990733;28;20058;-81
2021/08/29 03:17:05;;;;;;;16.13;5.82;;;11.70;99.90;;;;;;4991077;28;20039;-81
2021/08/29 03:19:45;;;;;;;12.23;5.63;;;11.80;99.90;;;;;;4969666;28;20051;-80
2021/08/29 03:22:24;;;;;;;17.00;6.00;;;11.70;99.90;;;;;;4987847;28;20056;-81
2021/08/29 03:24:55;;;;;;;19.05;7.22;;;11.70;99.90;;;;;;4984601;28;20074;-80
2021/08/29 03:27:24;;;;;;;18.50;5.78;;;11.70;99.90;;;;;;4976255;28;20042;-80
2021/08/29 03:29:54;;;;;;;16.67;6.30;;;11.60;99.90;;;;;;4988725;28;20047;-80
2021/08/29 03:32:23;;;;;;;22.23;5.88;;;11.60;99.90;;;;;;4977534;28;20050;-80
2021/08/29 03:34:58;;;;;;;12.93;5.60;;;11.60;99.90;;;;;;4984759;28;20051;-80
2021/08/29 03:37:27;;;;;;;13.82;6.20;;;11.60;99.90;;;;;;4988774;28;20140;-80
2021/08/29 03:39:59;;;;;;;12.55;5.68;;;11.60;99.90;;;;;;4975808;28;20061;-81
2021/08/29 03:42:31;;;;;;;17.35;6.22;;;11.60;99.90;;;;;;4999709;28;20073;-81
2021/08/29 03:45:05;;;;;;;10.13;6.13;;;11.70;99.90;;;;;;4975810;28;20059;-81
2021/08/29 03:47:35;;;;;;;15.40;6.43;;;11.70;99.90;;;;;;4990705;28;20050;-80
2021/08/29 03:50:08;;;;;;;17.92;6.78;;;11.70;99.90;;;;;;4988833;28;20047;-82
2021/08/29 03:52:40;;;;;;;11.68;5.15;;;11.70;99.90;;;;;;4974627;28;20065;-82
2021/08/29 03:55:20;;;;;;;12.55;6.00;;;11.80;99.90;;;;;;4991277;28;20038;-81
2021/08/29 03:57:57;;;;;;;19.33;6.40;;;11.80;99.90;;;;;;4985136;28;20058;-80
2021/08/29 04:00:35;;;;;;;12.55;5.45;;;11.70;99.90;;;;;;4970758;28;20073;-81
2021/08/29 04:03:09;;;;;;;12.35;6.55;;;11.80;99.90;;;;;;4990213;28;20047;-82
2021/08/29 04:05:54;;;;;;;15.63;6.75;;;11.90;99.90;;;;;;4985944;28;20055;-82
2021/08/29 04:08:34;;;;;;;19.67;7.53;;;11.90;99.90;;;;;;4985812;28;20041;-81
2021/08/29 04:11:02;;;;;;;16.30;5.95;;;11.90;99.90;;;;;;4981881;28;20069;-81
2021/08/29 04:13:33;;;;;;;12.73;6.03;;;11.90;99.90;;;;;;4997437;28;20049;-80
2021/08/29 04:16:11;;;;;;;12.35;6.10;;;11.90;99.90;;;;;;5002008;28;20061;-80
2021/08/29 04:18:43;;;;;;;;;;;12.00;99.90;;;;;;4973190;28;20058;-81
2021/08/29 04:21:19;;;;;;;20.63;7.47;;;11.90;99.90;;;;;;4977457;28;19926;-80
2021/08/29 04:23:48;;;;;;;12.13;5.43;;;11.90;99.90;;;;;;4990238;28;20050;-80
2021/08/29 04:26:18;;;;;;;23.15;6.68;;;11.90;99.90;;;;;;4994110;28;20057;-80
2021/08/29 04:28:46;;;;;;;15.95;7.47;;;11.90;99.90;;;;;;4988742;28;20061;-82
2021/08/29 04:31:30;;;;;;;13.18;5.95;;;11.90;99.90;;;;;;5001052;28;20073;-81
2021/08/29 04:34:08;;;;;;;13.18;5.57;;;11.50;99.90;;;;;;4993778;28;20053;-81
2021/08/29 04:36:39;;;;;;;12.80;6.72;;;11.90;99.90;;;;;;4963355;28;20061;-80
2021/08/29 04:39:21;;;;;;;13.95;7.20;;;11.90;99.90;;;;;;4995212;28;20046;-79
2021/08/29 04:41:51;;;;;;;21.05;6.32;;;11.90;99.90;;;;;;4986434;28;20049;-80
2021/08/29 04:44:21;;;;;;;14.27;6.72;;;12.00;99.90;;;;;;5001513;28;20050;-80
2021/08/29 04:46:50;;;;;;;14.15;5.97;;;11.90;99.90;;;;;;4974464;28;20045;-80
2021/08/29 04:49:19;;;;;;;20.33;7.20;;;11.90;99.90;;;;;;4988226;28;20038;-81
2021/08/29 04:51:48;;;;;;;14.20;6.55;;;11.90;99.90;;;;;;4989485;28;20043;-81
2021/08/29 04:54:16;;;;;;;12.68;6.72;;;12.00;99.90;;;;;;4997867;28;20046;-81
2021/08/29 04:56:46;;;;;;;11.82;5.40;;;12.00;99.90;;;;;;4972695;28;20042;-81
2021/08/29 04:59:17;;;;;;;15.95;6.43;;;12.00;99.90;;;;;;4985165;28;20047;-80
2021/08/29 05:01:47;;;;;;;16.00;6.38;;;12.00;99.90;;;;;;4979460;28;20039;-81
2021/08/29 05:04:16;;;;;;;15.97;7.30;;;12.00;99.90;;;;;;4976401;28;20058;-81
2021/08/29 05:06:45;;;;;;;14.18;6.22;;;12.00;99.90;;;;;;4983292;28;20051;-80
2021/08/29 05:09:17;;;;;;;12.80;6.60;;;12.00;99.90;;;;;;4970513;28;20065;-81
2021/08/29 05:11:47;;;;;;;18.52;6.60;;;12.10;99.90;;;;;;4985810;28;20051;-81
2021/08/29 05:14:15;;;;;;;16.45;6.97;;;12.10;99.90;;;;;;4977787;28;20043;-78
2021/08/29 05:16:44;;;;;;;16.95;7.53;;;12.10;99.90;;;;;;4985524;28;20062;-81
2021/08/29 05:19:12;;;;;;;23.23;8.55;;;13.30;99.90;;;;;;4976652;28;20058;-82
2021/08/29 05:21:40;;;;;;;16.98;5.88;;;12.20;99.90;;;;;;4993433;28;20045;-81
2021/08/29 05:24:31;;;;;;;15.45;7.25;;;12.20;99.90;;;;;;4994793;28;20060;-81
2021/08/29 05:27:06;;;;;;;14.63;6.72;;;12.30;99.90;;;;;;4990965;28;20058;-82
2021/08/29 05:29:35;;;;;;;12.48;5.82;;;12.40;99.90;;;;;;4999963;28;20042;-82
2021/08/29 05:32:05;;;;;;;12.85;6.40;;;12.40;99.90;;;;;;5002451;28;20038;-82
2021/08/29 05:34:39;;;;;;;13.00;6.32;;;12.40;99.90;;;;;;5016081;28;20039;-82
2021/08/29 05:37:09;;;;;;;13.15;6.93;;;12.50;99.90;;;;;;4986642;28;20060;-80
2021/08/29 05:39:58;;;;;;;14.68;6.20;;;12.50;99.90;;;;;;5008840;28;20055;-79
2021/08/29 05:42:31;;;;;;;19.23;8.73;;;12.60;99.90;;;;;;4986089;28;20056;-81
2021/08/29 05:45:11;;;;;;;13.88;6.75;;;12.60;99.90;;;;;;4995484;28;20038;-82
2021/08/29 05:47:39;;;;;;;13.10;6.10;;;12.70;99.90;;;;;;4987542;28;20050;-79
2021/08/29 05:50:08;;;;;;;17.38;7.20;;;12.70;99.90;;;;;;4978727;28;20042;-81
2021/08/29 05:52:41;;;;;;;15.40;7.07;;;12.80;99.90;;;;;;4987360;28;20042;-80
2021/08/29 05:55:10;;;;;;;14.73;6.38;;;12.80;99.90;;;;;;4992719;28;20046;-79
2021/08/29 05:57:40;;;;;;;17.23;7.30;;;12.90;99.90;;;;;;4996428;28;20046;-81
2021/08/29 06:00:09;;;;;;;12.10;7.20;;;13.00;99.90;;;;;;4996459;28;20057;-81
2021/08/29 06:02:42;;;;;;;13.40;6.18;;;13.10;99.90;;;;;;5010121;28;20040;-79
2021/08/29 06:05:12;;;;;;;23.02;7.53;;;13.10;99.90;;;;;;4960500;28;20054;-80
2021/08/29 06:07:56;;;;;;;14.07;6.63;;;13.10;99.90;;;;;;4989459;28;20034;-81
2021/08/29 06:10:24;;;;;;;14.35;6.72;;;13.20;99.90;;;;;;4976619;28;20061;-81
2021/08/29 06:12:52;;;;;;;15.52;5.70;;;13.20;99.90;;;;;;4990147;28;20050;-80
2021/08/29 06:15:21;;;;;;;15.32;5.97;;;13.20;99.90;;;;;;4997510;28;20330;-80
2021/08/29 06:17:50;;;;;;;17.88;6.10;;;13.30;99.90;;;;;;5007489;28;20046;-80
2021/08/29 06:20:18;;;;;;;9.23;5.75;;;13.30;99.90;;;;;;4996331;28;20045;-81
2021/08/29 06:22:47;;;;;;;20.85;6.20;;;13.40;99.90;;;;;;5002800;28;20038;-80
2021/08/29 06:25:35;;;;;;;17.10;6.95;;;13.40;99.90;;;;;;5006426;28;20050;-80
2021/08/29 06:28:39;;;;;;;22.08;7.35;;;13.50;99.90;;;;;;4948540;29;20051;-80
2021/08/29 06:31:28;;;;;;;17.40;6.88;;;13.60;99.90;;;;;;5018692;28;20071;-79
2021/08/29 06:34:29;;;;;;;12.23;6.60;;;13.60;99.90;;;;;;4993241;28;20060;-81
2021/08/29 06:37:05;;;;;;;11.70;5.25;;;13.70;99.90;;;;;;4989729;28;20046;-80
2021/08/29 06:39:33;;;;;;;15.43;6.63;;;13.80;99.90;;;;;;4964884;28;20057;-81
2021/08/29 06:42:01;;;;;;;12.48;6.40;;;13.80;99.90;;;;;;4991594;28;20047;-80
2021/08/29 06:44:30;;;;;;;15.98;6.55;;;13.90;99.90;;;;;;4977384;28;20046;-81
2021/08/29 06:47:01;;;;;;;;;;;14.30;99.90;;;;;;4999373;28;20038;-81
2021/08/29 06:49:48;;;;;;;19.98;6.18;;;14.10;99.90;;;;;;5007884;28;20398;-81
2021/08/29 06:52:56;;;;;;;14.07;5.32;;;14.10;99.90;;;;;;4959552;28;20051;-80
2021/08/29 06:55:43;;;;;;;13.40;5.45;;;14.20;99.90;;;;;;4967826;28;20150;-80
2021/08/29 06:58:34;;;;;;;14.90;5.63;;;14.30;99.90;;;;;;4971533;28;20420;-80
2021/08/29 07:01:08;;;;;;;15.48;5.22;;;14.40;99.90;;;;;;4982837;28;20530;-82
2021/08/29 07:03:36;;;;;;;13.55;6.25;;;15.30;99.90;;;;;;5000420;28;20048;-82
2021/08/29 07:06:09;;;;;;;9.15;4.57;;;14.50;99.90;;;;;;4991368;28;20061;-80
2021/08/29 07:09:00;;;;;;;12.32;5.70;;;14.60;99.90;;;;;;4982922;28;20082;-81
2021/08/29 07:11:30;;;;;;;12.02;4.45;;;14.70;99.90;;;;;;4983916;28;20061;-80
2021/08/29 07:14:46;;;;;;;13.18;4.28;;;14.80;99.90;;;;;;4952667;28;20047;-81
2021/08/29 07:17:18;;;;;;;9.60;4.53;;;14.90;99.90;;;;;;4965521;28;20046;-81
2021/08/29 07:19:47;;;;;;;15.20;6.20;;;14.90;99.90;;;;;;4970447;28;20583;-81
2021/08/29 07:22:35;;;;;;;10.32;4.47;;;15.00;99.90;;;;;;4983555;28;20060;-80
2021/08/29 07:25:23;;;;;;;16.55;5.25;;;15.10;99.90;;;;;;5018471;28;20050;-80
2021/08/29 07:28:13;;;;;;;12.48;5.20;;;14.40;99.90;;;;;;5003650;28;20386;-82
2021/08/29 07:31:11;;;;;;;14.52;3.92;;;15.30;99.90;;;;;;4975953;28;20130;-80
2021/08/29 07:33:40;;;;;;;14.90;5.05;;;15.30;99.90;;;;;;4988063;28;20042;-81
2021/08/29 07:36:22;;;;;;;10.55;4.47;;;15.40;99.90;;;;;;4992570;28;20053;-82
2021/08/29 07:39:07;;;;;;;14.40;4.90;;;15.30;99.90;;;;;;5002293;28;20050;-81
2021/08/29 07:41:36;;;;;;;12.57;4.57;;;15.50;99.90;;;;;;4986494;28;20046;-80
2021/08/29 07:44:06;;;;;;;15.13;4.85;;;15.60;99.90;;;;;;4992727;28;20046;-81
2021/08/29 07:46:34;;;;;;;13.27;5.45;;;15.60;99.90;;;;;;4988584;28;20050;-80
2021/08/29 07:49:03;;;;;;;15.27;4.47;;;15.70;99.90;;;;;;4971827;28;20403;-81
2021/08/29 07:51:34;;;;;;;16.67;5.03;;;14.90;99.90;;;;;;4979366;28;20050;-80
2021/08/29 07:54:21;;;;;;;15.40;5.05;;;15.80;99.90;;;;;;5005417;28;20044;-80
2021/08/29 07:57:30;;;;;;;21.30;5.20;;;15.90;99.90;;;;;;4928875;29;20056;-80
2021/08/29 08:00:06;;;;;;;11.57;4.57;;;16.00;99.90;;;;;;4928724;29;20043;-81
2021/08/29 08:02:40;;;;;;;13.48;5.10;;;16.00;99.90;;;;;;4979539;28;20063;-81
2021/08/29 08:05:29;;;;;;;11.57;4.40;;;16.10;99.90;;;;;;5007981;28;20054;-81
2021/08/29 08:08:18;;;;;;;12.75;5.60;;;16.10;99.90;;;;;;5007423;28;20064;-80
2021/08/29 08:11:09;;;;;;;13.18;4.15;;;16.20;99.90;;;;;;4996429;28;20065;-81
2021/08/29 08:13:37;;;;;;;14.32;4.60;;;16.20;99.90;;;;;;4999396;28;20046;-80
2021/08/29 08:16:06;;;;;;;11.73;4.53;;;16.30;99.90;;;;;;4982773;28;20057;-81
2021/08/29 08:18:37;;;;;;;13.25;3.72;;;16.40;99.90;;;;;;4994138;28;20049;-82
2021/08/29 08:21:06;;;;;;;13.20;3.63;;;16.50;99.90;;;;;;4994451;28;20045;-80
2021/08/29 08:23:57;;;;;;;8.90;3.72;;;16.60;99.90;;;;;;5005992;28;20053;-81
2021/08/29 08:26:44;;;;;;;8.63;3.85;;;16.70;99.90;;;;;;5005544;28;20042;-82
2021/08/29 08:29:41;;;;;;;14.65;3.97;;;16.80;99.90;;;;;;4957424;28;20059;-82
2021/08/29 08:32:29;;;;;;;10.40;4.25;;;16.80;99.90;;;;;;4989644;28;20038;-81
2021/08/29 08:35:12;;;;;;;10.25;3.72;;;16.90;99.90;;;;;;5002744;28;20046;-81
2021/08/29 08:37:53;;;;;;;6.95;2.90;;;17.00;99.90;;;;;;5010162;28;20056;-80
2021/08/29 08:40:42;;;;;;;13.73;3.60;;;17.10;99.90;;;;;;4992538;28;20042;-82
2021/08/29 08:43:34;;;;;;;13.02;3.83;;;16.20;99.90;;;;;;4986799;28;20053;-81
2021/08/29 08:46:22;;;;;;;8.13;3.00;;;17.20;99.90;;;;;;5010226;28;20046;-81
2021/08/29 08:49:20;;;;;;;8.77;3.40;;;17.30;99.90;;;;;;4968072;28;20075;-81
2021/08/29 08:52:16;;;;;;;8.07;3.17;;;17.40;99.90;;;;;;4974434;28;20039;-81
2021/08/29 08:55:06;;;;;;;7.63;3.47;;;17.50;99.90;;;;;;5002531;28;20054;-81
2021/08/29 08:57:54;;;;;;;9.65;3.20;;;17.60;99.90;;;;;;4989059;28;20053;-80
2021/08/29 09:00:33;;;;;;;9.35;3.30;;;17.70;99.90;;;;;;4985364;28;20047;-82
2021/08/29 09:03:22;;;;;;;14.60;3.90;;;17.80;99.90;;;;;;5017809;28;20045;-82
2021/08/29 09:06:08;;;;;;;11.00;3.78;;;17.90;99.90;;;;;;4989142;28;20057;-81
2021/08/29 09:08:37;;;;;;;12.38;3.95;;;17.90;99.90;;;;;;4970339;28;20122;-82
2021/08/29 09:11:06;;;;;;;11.68;4.40;;;18.00;99.90;;;;;;4981652;28;20389;-82
2021/08/29 09:13:49;;;;;;;13.07;3.90;;;18.20;99.90;;;;;;4987678;28;20562;-81
2021/08/29 09:16:21;;;;;;;11.20;4.28;;;18.20;99.90;;;;;;5007080;28;20058;-82
2021/08/29 09:18:59;;;;;;;12.75;3.83;;;18.30;99.90;;;;;;4975211;28;20038;-81
2021/08/29 09:21:30;;;;;;;10.05;3.50;;;18.40;99.90;;;;;;4988446;28;20073;-81
2021/08/29 09:24:07;;;;;;;12.20;3.65;;;18.50;99.90;;;;;;4987895;28;20463;-82
2021/08/29 09:27:01;;;;;;;7.75;3.17;;;18.50;99.90;;;;;;5011200;28;20050;-81
2021/08/29 09:29:42;;;;;;;7.55;3.13;;;17.50;99.90;;;;;;4980854;28;20064;-81
2021/08/29 09:32:22;;;;;;;9.90;3.53;;;18.50;99.90;;;;;;4991584;28;20042;-81
2021/08/29 09:35:00;;;;;;;6.75;3.25;;;18.60;99.90;;;;;;4973337;28;20046;-81
2021/08/29 09:37:46;;;;;;;10.18;3.00;;;18.60;99.90;;;;;;4982556;28;20057;-81
2021/08/29 09:40:42;;;;;;;7.05;2.53;;;18.60;99.90;;;;;;4981200;28;20047;-81
2021/08/29 09:43:14;;;;;;;6.07;2.50;;;18.50;99.90;;;;;;4991900;28;20056;-81
2021/08/29 09:45:48;;;;;;;12.93;3.55;;;18.50;99.90;;;;;;4988073;28;20113;-82
2021/08/29 09:48:35;;;;;;;7.15;3.55;;;18.40;99.90;;;;;;5011045;28;20049;-81
2021/08/29 09:51:12;;;;;;;8.43;2.97;;;18.40;99.90;;;;;;4999476;28;20048;-81
2021/08/29 09:54:03;;;;;;;7.57;2.63;;;18.40;99.90;;;;;;5007985;28;20046;-81
2021/08/29 09:57:12;;;;;;;7.18;2.97;;;18.40;99.90;;;;;;5001546;28;20295;-80
2021/08/29 09:59:54;;;;;;;10.85;3.67;;;18.40;99.90;;;;;;4974583;28;20050;-81
2021/08/29 10:02:42;;;;;;;9.77;3.42;;;18.50;99.90;;;;;;4994578;28;20038;-82
2021/08/29 10:05:13;;;;;;;8.93;4.00;;;18.50;99.90;;;;;;4979547;28;20054;-81
2021/08/29 10:07:57;;;;;;;8.07;5.05;;;18.70;99.90;;;;;;4980820;28;20050;-81
2021/08/29 10:10:29;;;;;;;7.13;3.08;;;18.70;99.90;;;;;;4995183;28;20052;-81
2021/08/29 10:13:01;;;;;;;15.57;6.10;;;18.70;99.90;;;;;;4983690;28;20060;-82
2021/08/29 10:15:33;;;;;;;10.77;3.17;;;18.70;99.90;;;;;;4979645;28;20069;-82
2021/08/29 10:18:42;;;;;;;9.80;2.78;;;18.70;99.90;;;;;;5007819;28;20050;-81
2021/08/29 10:21:33;;;;;;;6.97;2.88;;;18.70;99.90;;;;;;4989189;28;20056;-82
2021/08/29 10:24:05;;;;;;;9.07;3.00;;;18.70;99.90;;;;;;4977773;28;20054;-81
2021/08/29 10:26:34;;;;;;;8.02;3.47;;;18.70;99.90;;;;;;4970722;28;20046;-82
2021/08/29 10:29:28;;;;;;;8.95;3.63;;;18.80;99.90;;;;;;4995870;28;20050;-81
2021/08/29 10:32:09;;;;;;;12.57;3.08;;;18.50;99.00;;;;;;4996339;28;20053;-79
2021/08/29 10:34:43;;;;;;;8.68;3.40;;;19.00;98.90;;;;;;4974769;28;20054;-80
2021/08/29 10:37:13;;;;;;;4.70;2.42;;;19.10;99.00;;;;;;5007475;28;20042;-81
2021/08/29 10:39:49;;;;;;;7.47;3.10;;;19.20;98.80;;;;;;4989274;28;20065;-84
2021/08/29 10:42:44;;;;;;;9.57;3.13;;;19.40;98.70;;;;;;5008398;28;20053;-82
2021/08/29 10:45:21;;;;;;;6.95;2.63;;;19.50;98.50;;;;;;4996234;28;20045;-82
2021/08/29 10:48:24;;;;;;;8.93;2.03;;;19.60;98.00;;;;;;4970779;28;20061;-79
2021/08/29 10:51:02;;;;;;;10.90;3.33;;;19.60;98.30;;;;;;5008900;28;20047;-81
2021/08/29 10:53:50;;;;;;;13.82;3.60;;;19.80;97.90;;;;;;4984596;28;20038;-81
2021/08/29 10:56:23;;;;;;;7.70;3.45;;;19.70;97.70;;;;;;4967450;28;20058;-81
2021/08/29 10:59:19;;;;;;;7.85;2.95;;;19.70;97.20;;;;;;5009092;28;20053;-82
2021/08/29 11:02:09;;;;;;;9.13;2.95;;;19.70;96.80;;;;;;4990020;28;20057;-82
2021/08/29 11:05:38;;;;;;;11.00;3.20;;;19.70;97.00;;;;;;4974965;28;20042;-83
2021/08/29 11:08:43;;;;;;;9.10;2.90;;;19.70;96.90;;;;;;4983681;28;20050;-82
2021/08/29 11:12:02;;;;;;;10.40;3.80;;;19.70;95.80;;;;;;4968604;28;20053;-82
2021/08/29 11:14:38;;;;;;;8.05;2.92;;;19.70;95.80;;;;;;4960708;28;20050;-81
2021/08/29 11:17:15;;;;;;;9.73;3.65;;;19.80;96.50;;;;;;4996399;28;20046;-82
2021/08/29 11:20:04;;;;;;;10.75;2.85;;;19.90;95.90;;;;;;5000216;28;20061;-82
2021/08/29 11:22:47;;;;;;;9.43;2.35;;;19.90;96.00;;;;;;5012441;28;20050;-81
2021/08/29 11:25:34;;;;;;;5.57;2.58;;;20.00;96.00;;;;;;4987509;28;20046;-82
2021/08/29 11:28:30;;;;;;;6.00;2.45;;;20.00;95.90;;;;;;4977621;28;20066;-81
2021/08/29 11:31:51;;;;;;;5.15;2.40;;;20.10;95.00;;;;;;4990137;28;20042;-82
2021/08/29 11:34:29;;;;;;;5.55;2.42;;;20.10;95.00;;;;;;4975196;28;20050;-81
2021/08/29 11:37:18;;;;;;;7.57;2.83;;;20.30;95.40;;;;;;4997318;28;20484;-82
2021/08/29 11:40:03;;;;;;;6.00;2.33;;;20.40;94.90;;;;;;4986389;28;20122;-81
2021/08/29 11:42:33;;;;;;;9.38;2.45;;;20.60;94.40;;;;;;4997393;28;20061;-81
2021/08/29 11:45:11;;;;;;;4.03;2.60;;;20.70;94.00;;;;;;4970768;28;20058;-81
2021/08/29 11:47:44;;;;;;;6.63;2.85;;;20.90;93.30;;;;;;4969835;28;20054;-81
2021/08/29 11:50:20;;;;;;;4.25;2.10;;;20.90;93.50;;;;;;4989595;28;20061;-81
2021/08/29 11:53:21;;;;;;;9.30;2.67;;;20.90;93.10;;;;;;4977140;28;20058;-82
2021/08/29 11:56:08;;;;;;;8.60;1.92;;;20.90;93.30;;;;;;4967418;28;20070;-81
2021/08/29 11:58:36;;;;;;;9.32;2.10;;;21.00;92.60;;;;;;4991761;28;20062;-81
2021/08/29 12:01:05;;;;;;;9.32;3.25;;;21.00;93.30;;;;;;4987445;28;20045;-81
2021/08/29 12:03:44;;;;;;;6.43;1.90;;;21.00;92.80;;;;;;4984275;28;20042;-83
2021/08/29 12:06:22;;;;;;;7.90;2.00;;;21.10;92.80;;;;;;4997884;28;20046;-81
2021/08/29 12:09:31;;;;;;;4.28;1.83;;;21.10;92.70;;;;;;5011629;28;20049;-81
2021/08/29 12:12:21;;;;;;;7.32;1.88;;;21.20;91.60;;;;;;4994673;28;20046;-82
2021/08/29 12:15:15;;;;;;;8.52;2.35;;;21.30;92.50;;;;;;4996859;28;20059;-81
2021/08/29 12:18:07;;;;;;;6.72;2.92;;;21.40;92.40;;;;;;5008358;28;20386;-82
2021/08/29 12:20:40;;;;;;;6.45;1.83;;;21.50;92.40;;;;;;4970237;28;20152;-82
2021/08/29 12:23:35;;;;;;;5.20;1.52;;;21.50;92.00;;;;;;4977896;28;20054;-82
2021/08/29 12:26:09;;;;;;;3.85;1.38;;;21.60;92.30;;;;;;4975867;28;20058;-81
2021/08/29 12:28:39;;;;;;;4.53;2.08;;;21.60;92.00;;;;;;4996378;28;20065;-82
2021/08/29 12:31:07;;;;;;;7.65;1.50;;;21.60;92.00;;;;;;4992892;28;20288;-83
2021/08/29 12:33:48;;;;;;;5.72;1.75;;;21.50;91.50;;;;;;4990466;28;20050;-82
2021/08/29 12:36:21;;;;;;;3.35;1.42;;;21.50;92.10;;;;;;4970339;28;20049;-82
2021/08/29 12:38:54;;;;;;;8.88;1.48;;;21.40;92.00;;;;;;5010615;28;20050;-83
2021/08/29 12:41:23;;;;;;;4.85;1.80;;;21.40;92.30;;;;;;4986635;28;20042;-82
2021/08/29 12:44:03;;;;;;;5.68;1.30;;;21.30;92.30;;;;;;4993342;28;20373;-81
2021/08/29 12:46:31;;;;;;;6.88;1.75;;;21.20;91.80;;;;;;5009597;28;20069;-82
2021/08/29 12:49:00;;;;;;;9.35;1.95;;;21.00;91.80;;;;;;5010488;28;20038;-82
2021/08/29 12:51:32;;;;;;;11.63;1.60;;;21.00;92.10;;;;;;4998132;28;20065;-81
2021/08/29 12:54:05;;;;;;;2.42;1.25;;;20.90;91.70;;;;;;4973318;28;20050;-82
2021/08/29 12:56:35;;;;;;;4.25;1.00;;;20.90;91.10;;;;;;5013385;28;20045;-82
2021/08/29 12:59:04;;;;;;;4.13;1.08;;;20.90;91.80;;;;;;4994367;28;20042;-81
2021/08/29 13:01:32;;;;;;;3.47;1.08;;;20.90;91.80;;;;;;5014088;28;20050;-82
2021/08/29 13:04:03;;;;;;;1.80;1.20;;;20.80;91.30;;;;;;4995054;28;20042;-81
2021/08/29 13:06:39;;;;;;;6.75;1.05;;;20.80;91.30;;;;;;4974899;28;20050;-82
2021/08/29 13:09:08;;;;;;;6.55;1.48;;;20.80;91.00;;;;;;5002785;28;20042;-82
2021/08/29 13:11:44;;;;;;;4.13;1.60;;;20.80;91.20;;;;;;4997441;28;20065;-82
2021/08/29 13:14:27;;;;;;;10.85;1.67;;;20.90;91.00;;;;;;4980810;28;20065;-82
2021/08/29 13:16:56;;;;;;;2.35;1.05;;;20.90;90.40;;;;;;4990318;28;20049;-84
2021/08/29 13:19:26;;;;;;;5.05;1.75;;;21.90;91.30;;;;;;5015559;28;20056;-84
2021/08/29 13:21:58;;;;;;;3.65;1.30;;;21.20;90.90;;;;;;4992336;28;20042;-81
2021/08/29 13:24:30;;;;;;;5.78;1.90;;;21.30;90.20;;;;;;4997882;28;20046;-80
2021/08/29 13:27:00;;;;;;;6.03;1.70;;;21.40;90.10;;;;;;4994854;28;20530;-82
2021/08/29 13:29:42;;;;;;;4.53;1.17;;;21.50;89.60;;;;;;4997141;28;20051;-84
2021/08/29 13:32:11;;;;;;;5.30;1.23;;;21.60;89.20;;;;;;4990923;28;20051;-83
2021/08/29 13:34:40;;;;;;;6.38;1.02;;;21.70;88.10;;;;;;4989765;28;20053;-82